Time;durP1;ratioP1;P1;durP2;ratioP2;P2;SDS_P1;SDS_P2;PMS_P1;PMS_P2;Temp;Humidity;BMP_temperature;BMP_pressure;BME280_temperature;BME280_humidity;BME280_pressure;Samples;Min_cycle;Max_cycle;Signal;HPM_P1;HPM_P2
2024/04/21 00:02:38;;;;;;;11.23;4.87;;;;;;;2.19;100.00;101120.88;5048882;56;1138801;-81
2024/04/21 00:07:44;;;;;;;9.60;4.77;;;;;;;2.18;100.00;101120.48;4972094;57;1138809;-81
2024/04/21 00:12:50;;;;;;;11.30;4.95;;;;;;;2.16;100.00;101123.13;4972332;57;1136602;-85
2024/04/21 00:17:55;;;;;;;12.67;5.30;;;;;;;2.12;100.00;101131.98;5036345;56;1138757;-81
2024/04/21 00:23:01;;;;;;;14.83;5.93;;;;;;;2.06;100.00;101134.78;5024157;57;1139183;-84
2024/04/21 00:28:07;;;;;;;7.43;4.63;;;;;;;2.03;100.00;101144.02;5084171;56;1138810;-83
2024/04/21 00:33:12;;;;;;;7.23;4.00;;;;;;;1.97;100.00;101143.78;5128459;56;1136354;-80
2024/04/21 00:38:18;;;;;;;12.67;4.60;;;;;;;1.92;100.00;101143.52;5108659;56;1136606;-84
2024/04/21 00:43:23;;;;;;;7.10;4.17;;;;;;;1.89;100.00;101152.73;5108079;56;1138611;-85
2024/04/21 00:48:29;;;;;;;13.28;4.85;;;;;;;1.85;100.00;101151.11;5126985;56;1136626;-83
2024/04/21 00:53:35;;;;;;;11.27;4.73;;;;;;;1.82;100.00;101145.57;5108200;56;1138514;-81
2024/04/21 00:58:44;;;;;;;10.04;4.36;;;;;;;1.74;100.00;101156.22;5058602;56;1138706;-82
2024/04/21 01:03:52;;;;;;;14.47;4.67;;;;;;;1.72;100.00;101151.95;5051979;56;1138834;-83
2024/04/21 01:08:57;;;;;;;10.53;5.37;;;;;;;1.69;100.00;101159.86;5107082;56;1138574;-80
2024/04/21 01:14:03;;;;;;;8.27;4.20;;;;;;;1.66;100.00;101161.28;5108346;56;1138596;-83
2024/04/21 01:19:08;;;;;;;8.33;4.10;;;;;;;1.62;100.00;101161.83;5128412;56;1136746;-82
2024/04/21 01:24:14;;;;;;;9.30;5.00;;;;;;;1.57;100.00;101167.62;5050326;56;1136411;-85
2024/04/21 01:29:20;;;;;;;11.23;5.20;;;;;;;1.51;100.00;101167.82;5024914;57;1136315;-83
2024/04/21 01:34:25;;;;;;;10.77;4.10;;;;;;;1.51;100.00;101167.82;5044388;57;1138566;-82
2024/04/21 01:39:31;;;;;;;5.10;3.53;;;;;;;1.46;100.00;101167.09;5024312;57;1138951;-83
2024/04/21 01:44:37;;;;;;;8.57;4.03;;;;;;;1.44;100.00;101166.73;5048167;56;1136860;-83
2024/04/21 01:49:45;;;;;;;6.97;4.15;;;;;;;1.36;100.00;101170.88;5110102;56;1136758;-80
2024/04/21 01:54:50;;;;;;;8.95;4.90;;;;;;;1.31;100.00;101174.91;5060429;56;1136710;-84
2024/04/21 01:59:56;;;;;;;13.22;5.62;;;;;;;1.29;100.00;101181.91;5022388;56;1136552;-81
2024/04/21 02:05:01;;;;;;;11.57;5.00;;;;;;;1.30;100.00;101186.68;5023259;57;1138870;-85
2024/04/21 02:10:08;;;;;;;8.73;4.20;;;;;;;1.28;100.00;101191.08;5043745;57;1138551;-85
2024/04/21 02:15:14;;;;;;;10.40;5.17;;;;;;;1.23;100.00;101192.50;5024252;57;1136682;-84
2024/04/21 02:20:19;;;;;;;13.93;6.00;;;;;;;1.28;100.00;101188.47;5024262;56;1138568;-79
2024/04/21 02:25:26;;;;;;;18.53;7.37;;;;;;;1.16;100.00;101187.08;5043854;57;1138935;-82
2024/04/21 02:30:32;;;;;;;18.77;7.40;;;;;;;1.18;100.00;101185.73;5024330;57;1138572;-85
2024/04/21 02:35:38;;;;;;;15.27;6.90;;;;;;;1.22;100.00;101182.98;5024004;57;1138932;-84
2024/04/21 02:40:44;;;;;;;13.00;5.50;;;;;;;1.25;100.00;101188.11;5030900;57;1139034;-82
2024/04/21 02:45:50;;;;;;;15.83;7.92;;;;;;;1.21;100.00;101182.60;5087643;56;1138866;-82
2024/04/21 02:50:56;;;;;;;13.72;6.55;;;;;;;1.15;100.00;101181.91;5042552;56;1138597;-79
2024/04/21 02:56:01;;;;;;;24.70;5.87;;;;;;;1.13;100.00;101188.46;5022702;56;1138928;-84
2024/04/21 03:01:07;;;;;;;14.70;6.70;;;;;;;1.10;100.00;101188.98;5042290;56;1139033;-86
2024/04/21 03:06:13;;;;;;;19.50;6.90;;;;;;;0.97;100.00;101200.20;5024001;57;1139144;-80
2024/04/21 03:11:18;;;;;;;12.53;6.47;;;;;;;0.85;100.00;101205.73;5023919;57;1138662;-81
2024/04/21 03:16:24;;;;;;;9.47;5.33;;;;;;;0.92;100.00;101204.66;5043531;56;1138691;-85
2024/04/21 03:21:30;;;;;;;12.53;5.23;;;;;;;0.94;100.00;101208.94;5024205;57;1136341;-85
2024/04/21 03:26:35;;;;;;;17.53;5.60;;;;;;;0.90;100.00;101204.73;5023808;57;1138811;-84
2024/04/21 03:31:41;;;;;;;15.18;6.80;;;;;;;0.83;100.00;101197.11;5024184;57;1139150;-79
2024/04/21 03:36:47;;;;;;;11.13;4.17;;;;;;;0.80;100.00;101196.73;5043752;57;1139096;-78
2024/04/21 03:41:53;;;;;;;6.12;3.95;;;;;;;0.84;100.00;101192.31;5024137;57;1138950;-84
2024/04/21 03:46:58;;;;;;;9.67;3.53;;;;;;;0.93;100.00;101197.27;5025489;56;1136634;-83
2024/04/21 03:52:04;;;;;;;12.77;5.07;;;;;;;0.98;100.00;101200.16;5042766;57;1136312;-82
2024/04/21 03:57:09;;;;;;;9.53;4.60;;;;;;;0.93;100.00;101202.47;5021139;57;1138744;-83
2024/04/21 04:02:15;;;;;;;11.83;4.50;;;;;;;0.94;100.00;101204.18;5024341;57;1136506;-81
2024/04/21 04:07:21;;;;;;;11.73;5.30;;;;;;;1.02;100.00;101213.95;5021873;57;1138944;-83
2024/04/21 04:12:26;;;;;;;19.87;10.10;;;;;;;1.05;100.00;101208.23;5043953;56;1138759;-83
2024/04/21 04:17:32;;;;;;;22.03;9.03;;;;;;;1.13;100.00;101208.44;5078313;56;1140799;-83
2024/04/21 04:22:40;;;;;;;15.77;7.83;;;;;;;1.20;100.00;101212.60;5079136;56;1138732;-86
2024/04/21 04:27:46;;;;;;;13.70;6.60;;;;;;;1.24;100.00;101214.20;5105103;57;1138845;-82
2024/04/21 04:32:51;;;;;;;20.07;7.03;;;;;;;1.27;100.00;101222.80;5067522;57;1138987;-82
2024/04/21 04:37:57;;;;;;;10.10;5.90;;;;;;;1.31;100.00;101221.81;5078589;56;1138931;-82
2024/04/21 04:43:03;;;;;;;13.80;5.87;;;;;;;1.38;100.00;101223.34;5040288;56;1138821;-84
2024/04/21 04:48:09;;;;;;;33.00;16.07;;;;;;;1.49;100.00;101233.92;5077167;56;1138829;-82
2024/04/21 04:53:14;;;;;;;19.67;7.77;;;;;;;1.45;100.00;101231.84;5075359;56;1140943;-79
2024/04/21 04:58:20;;;;;;;13.73;5.27;;;;;;;1.46;100.00;101233.55;5098425;57;1138618;-82
2024/04/21 05:03:25;;;;;;;12.13;5.60;;;;;;;1.43;100.00;101227.57;5051518;56;1138423;-85
2024/04/21 05:08:31;;;;;;;13.03;6.83;;;;;;;1.40;100.00;101226.75;5007032;56;1139044;-87
2024/04/21 05:13:37;;;;;;;20.87;7.03;;;;;;;1.39;100.00;101228.95;5015871;57;1138957;-79
2024/04/21 05:18:42;;;;;;;14.67;7.37;;;;;;;1.40;100.00;101228.06;5035363;57;1138579;-81
2024/04/21 05:23:48;;;;;;;13.33;5.93;;;;;;;1.44;100.00;101231.44;5016208;57;1139076;-83
2024/04/21 05:28:53;;;;;;;26.55;11.33;;;;;;;1.52;100.00;101237.30;5015740;56;1138913;-86
2024/04/21 05:33:59;;;;;;;18.05;6.42;;;;;;;1.55;100.00;101236.33;5035134;57;1140735;-82
2024/04/21 05:39:05;;;;;;;6.67;5.07;;;;;;;1.61;100.00;101238.33;5015885;56;1138829;-81
2024/04/21 05:44:10;;;;;;;6.20;3.57;;;;;;;1.71;100.00;101242.36;5031553;56;1136787;-85
2024/04/21 05:49:16;;;;;;;16.77;8.50;;;;;;;1.80;100.00;101237.34;5115365;56;1136544;-85
2024/04/21 05:54:21;;;;;;;8.73;4.53;;;;;;;1.85;100.00;101237.18;5086938;56;1139199;-83
2024/04/21 05:59:27;;;;;;;8.80;3.73;;;;;;;1.97;100.00;101246.81;5021796;56;1136351;-82
2024/04/21 06:04:32;;;;;;;4.63;2.60;;;;;;;2.04;100.00;101242.25;5038820;56;1136591;-82
2024/04/21 06:09:38;;;;;;;8.57;3.87;;;;;;;2.15;100.00;101246.67;5025373;56;1136718;-83
2024/04/21 06:14:44;;;;;;;8.27;3.50;;;;;;;2.26;100.00;101250.27;5096435;56;1136780;-83
2024/04/21 06:19:49;;;;;;;6.63;3.20;;;;;;;2.36;100.00;101251.67;5103427;56;1137003;-82
2024/04/21 06:24:55;;;;;;;7.75;3.83;;;;;;;2.41;100.00;101258.92;5108567;56;1136890;-79
2024/04/21 06:30:00;;;;;;;6.60;3.10;;;;;;;2.45;100.00;101244.84;5080139;56;1136790;-81
2024/04/21 06:35:06;;;;;;;3.05;2.50;;;;;;;2.67;100.00;101258.91;5085040;56;1136590;-79
2024/04/21 06:40:12;;;;;;;6.17;3.20;;;;;;;2.67;100.00;101258.91;5029196;56;1136672;-87
2024/04/21 06:45:17;;;;;;;10.08;3.62;;;;;;;2.69;100.00;101260.17;5071726;56;1136570;-83
2024/04/21 06:50:23;;;;;;;4.47;3.00;;;;;;;2.73;100.00;101268.31;5127328;56;1138853;-85
2024/04/21 06:55:28;;;;;;;6.67;4.13;;;;;;;2.76;100.00;101268.19;5098525;56;1136368;-82
2024/04/21 07:00:37;;;;;;;11.17;3.90;;;;;;;2.75;100.00;101271.73;5020398;56;1136658;-86
2024/04/21 07:05:43;;;;;;;4.12;3.00;;;;;;;2.76;100.00;101271.66;5088695;56;1138845;-84
2024/04/21 07:10:49;;;;;;;8.38;4.20;;;;;;;2.84;100.00;101268.80;5135288;56;1136740;-84
2024/04/21 07:15:54;;;;;;;6.42;3.47;;;;;;;3.01;100.00;101266.92;5087389;56;1136614;-79
2024/04/21 07:21:01;;;;;;;7.93;4.23;;;;;;;3.16;100.00;101265.94;5043687;56;1137385;-83
2024/04/21 07:26:06;;;;;;;5.53;3.10;;;;;;;3.25;100.00;101262.13;5057377;56;1136505;-85
2024/04/21 07:31:12;;;;;;;9.37;5.53;;;;;;;3.32;100.00;101269.31;5027151;56;1136984;-81
2024/04/21 07:36:17;;;;;;;10.67;5.87;;;;;;;3.39;100.00;101272.09;5021956;56;1136965;-86
2024/04/21 07:41:23;;;;;;;35.47;21.33;;;;;;;3.39;100.00;101269.02;5044454;56;1138683;-84
2024/04/21 07:46:29;;;;;;;8.37;5.20;;;;;;;3.42;100.00;101274.61;5047375;56;1140719;-85
2024/04/21 07:51:35;;;;;;;8.30;4.73;;;;;;;3.51;100.00;101268.58;5056229;56;1136454;-85
2024/04/21 07:56:40;;;;;;;11.60;5.67;;;;;;;3.66;100.00;101271.11;5079016;56;1136848;-84
2024/04/21 08:01:47;;;;;;;3.83;3.53;;;;;;;3.76;100.00;101262.00;5127839;56;1138680;-87
2024/04/21 08:06:53;;;;;;;7.03;3.87;;;;;;;3.84;100.00;101270.40;5024651;56;1146330;-79
2024/04/21 08:11:59;;;;;;;4.22;2.67;;;;;;;3.90;100.00;101262.78;5022846;56;1136625;-83
2024/04/21 08:17:04;;;;;;;5.92;2.98;;;;;;;3.97;100.00;101263.42;5017137;57;1136691;-86
2024/04/21 08:22:10;;;;;;;5.83;3.20;;;;;;;4.11;100.00;101265.05;5021543;56;1136703;-82
2024/04/21 08:27:15;;;;;;;3.77;3.03;;;;;;;4.23;100.00;101266.72;5036781;56;1136647;-82
2024/04/21 08:32:21;;;;;;;4.80;2.40;;;;;;;4.34;100.00;101276.76;5013124;57;1136683;-85
2024/04/21 08:37:27;;;;;;;3.13;2.40;;;;;;;4.44;100.00;101275.92;4996358;57;1136634;-82
2024/04/21 08:42:41;;;;;;;4.35;1.92;;;;;;;4.52;100.00;101273.41;4996481;57;1136914;-83
2024/04/21 08:47:43;;;;;;;7.30;3.02;;;;;;;4.58;100.00;101279.69;5070576;57;1136534;-81
2024/04/21 08:52:48;;;;;;;13.37;3.60;;;;;;;4.71;100.00;101272.66;5065479;56;1136351;-80
2024/04/21 08:57:54;;;;;;;8.13;3.23;;;;;;;4.82;100.00;101271.29;4996311;57;1138484;-80
2024/04/21 09:03:01;;;;;;;163.17;75.97;;;;;;;4.88;100.00;101272.36;4996751;57;1145977;-82
2024/04/21 09:08:07;;;;;;;8.65;5.33;;;;;;;4.92;100.00;101273.05;5015806;57;1142841;-77
2024/04/21 09:13:13;;;;;;;6.00;3.72;;;;;;;5.01;100.00;101280.55;4996575;57;1136648;-77
2024/04/21 09:18:19;;;;;;;4.90;2.70;;;;;;;5.14;100.00;101271.70;4975127;57;1136477;-85
2024/04/21 09:23:25;;;;;;;5.13;3.03;;;;;;;5.23;100.00;101268.20;5022144;56;1136414;-88
2024/04/21 09:28:31;;;;;;;6.43;3.30;;;;;;;5.30;100.00;101265.72;5021426;57;1136793;-79
2024/04/21 09:33:37;;;;;;;4.40;2.47;;;;;;;5.40;100.00;101262.22;5034339;57;1136740;-82
2024/04/21 09:38:44;;;;;;;51.10;24.95;;;;;;;5.48;100.00;101261.91;5034336;57;1136446;-81
2024/04/21 09:43:51;;;;;;;5.20;2.90;;;;;;;5.47;100.00;101256.26;5072104;56;1261997;-80
2024/04/21 09:48:58;;;;;;;3.53;1.87;;;;;;;5.38;100.00;101267.99;5094822;56;1136869;-80
2024/04/21 09:54:05;;;;;;;4.33;2.12;;;;;;;5.37;100.00;101254.48;5044074;56;1136996;-83
2024/04/21 09:59:11;;;;;;;5.45;3.17;;;;;;;5.42;100.00;101242.03;5064203;56;1136833;-78
2024/04/21 10:04:23;;;;;;;5.00;3.30;;;;;;;5.49;100.00;101243.47;5083001;56;1136786;-83
2024/04/21 10:09:29;;;;;;;3.03;2.30;;;;;;;5.61;100.00;101248.62;5126378;56;1136547;-80
2024/04/21 10:14:35;;;;;;;2.50;2.30;;;;;;;5.68;100.00;101250.48;5132905;56;1136719;-84
2024/04/21 10:19:41;;;;;;;7.37;3.27;;;;;;;5.62;100.00;101253.80;5087747;56;1136565;-80
2024/04/21 10:24:47;;;;;;;4.72;2.65;;;;;;;5.68;100.00;101253.11;5043627;57;1136764;-81
2024/04/21 10:29:52;;;;;;;2.83;2.57;;;;;;;5.85;100.00;101259.29;5045203;57;1136747;-81
2024/04/21 10:34:58;;;;;;;1.98;1.70;;;;;;;5.96;100.00;101256.19;5048684;57;1136894;-83
2024/04/21 10:40:07;;;;;;;3.43;2.20;;;;;;;5.92;100.00;101258.13;5044403;56;1136415;-83
2024/04/21 10:45:12;;;;;;;4.87;3.17;;;;;;;5.84;100.00;101254.96;5045097;56;1136517;-79
2024/04/21 10:50:18;;;;;;;4.80;2.43;;;;;;;5.77;100.00;101252.70;5063644;56;1136745;-81
2024/04/21 10:55:24;;;;;;;3.07;2.40;;;;;;;5.68;100.00;101260.52;5044023;56;1136970;-82
2024/04/21 11:00:31;;;;;;;2.97;1.90;;;;;;;5.56;100.00;101265.87;5046990;56;1136518;-79
2024/04/21 11:05:46;;;;;;;4.13;1.70;;;;;;;5.49;100.00;101266.23;5044290;56;1136539;-78
2024/04/21 11:10:53;;;;;;;5.12;2.33;;;;;;;5.46;100.00;101269.84;5061041;56;1254351;-80
2024/04/21 11:15:59;;;;;;;3.95;2.42;;;;;;;5.46;100.00;101265.05;5037964;56;1137012;-80
2024/04/21 11:21:05;;;;;;;17.63;7.53;;;;;;;5.54;100.00;101260.30;5062676;56;1136331;-83
2024/04/21 11:26:12;;;;;;;9.50;4.40;;;;;;;5.63;100.00;101256.81;5046066;57;1138832;-83
2024/04/21 11:31:18;;;;;;;4.87;3.10;;;;;;;5.80;100.00;101253.88;5033336;56;1136723;-83
2024/04/21 11:36:24;;;;;;;6.90;3.30;;;;;;;6.02;100.00;101255.06;5025184;56;1137006;-83
2024/04/21 11:41:31;;;;;;;4.37;2.40;;;;;;;6.32;100.00;101251.83;5074754;56;1138982;-83
2024/04/21 11:46:36;;;;;;;5.03;2.70;;;;;;;6.55;100.00;101250.73;5085229;54;1136594;-85
2024/04/21 11:51:42;;;;;;;6.83;3.45;;;;;;;6.81;100.00;101241.99;5080672;56;1136671;-80
2024/04/21 11:56:50;;;;;;;11.80;5.57;;;;;;;7.10;100.00;101235.25;5045562;56;1136767;-82
2024/04/21 12:01:55;;;;;;;5.63;3.17;;;;;;;7.20;100.00;101236.00;5079276;56;1145810;-79
2024/04/21 12:07:02;;;;;;;5.17;2.58;;;;;;;7.18;100.00;101241.80;5095882;56;1136776;-82
2024/04/21 12:12:08;;;;;;;9.90;3.02;;;;;;;7.02;100.00;101242.23;5077680;56;1136513;-80
2024/04/21 12:17:17;;;;;;;6.77;3.73;;;;;;;6.94;100.00;101243.92;5044779;56;1136796;-80
2024/04/21 12:22:22;;;;;;;5.50;2.00;;;;;;;6.86;100.00;101242.16;5025968;56;1136368;-81
2024/04/21 12:27:28;;;;;;;4.20;2.43;;;;;;;6.79;100.00;101247.79;5045352;57;1136540;-80
2024/04/21 12:32:33;;;;;;;6.73;3.60;;;;;;;6.75;100.00;101246.23;5025641;57;1137164;-80
2024/04/21 12:37:39;;;;;;;5.87;3.47;;;;;;;6.74;100.00;101253.73;5045232;56;1136900;-79
2024/04/21 12:42:44;;;;;;;4.78;1.98;;;;;;;6.73;100.00;101242.36;5085740;56;1136700;-83
2024/04/21 12:47:50;;;;;;;3.57;1.90;;;;;;;6.73;100.00;101253.34;5123542;56;1136647;-83
2024/04/21 12:52:55;;;;;;;2.10;1.70;;;;;;;6.74;100.00;101250.64;5006791;56;1136579;-82
2024/04/21 12:58:01;;;;;;;3.17;2.17;;;;;;;6.80;100.00;101249.49;5024788;56;1136933;-83
2024/04/21 13:03:07;;;;;;;1.82;1.67;;;;;;;6.82;100.00;101251.59;5050897;56;1136744;-83
2024/04/21 13:08:13;;;;;;;2.40;2.20;;;;;;;6.88;100.00;101254.73;5026250;56;1136539;-80
2024/04/21 13:13:19;;;;;;;3.60;2.50;;;;;;;6.96;100.00;101258.31;5025731;56;1136368;-84
2024/04/21 13:18:24;;;;;;;2.23;1.93;;;;;;;7.03;100.00;101258.37;5046448;56;1138371;-79
2024/04/21 13:23:30;;;;;;;1.73;1.63;;;;;;;7.11;100.00;101254.90;5085879;56;1136390;-84
2024/04/21 13:28:36;;;;;;;3.87;2.33;;;;;;;7.21;100.00;101260.06;5103206;56;1136722;-83
2024/04/21 13:33:41;;;;;;;1.55;1.45;;;;;;;7.28;100.00;101264.55;5025634;56;1136886;-82
2024/04/21 13:38:47;;;;;;;3.20;2.10;;;;;;;7.20;100.00;101266.71;5065318;56;1136588;-82
2024/04/21 13:43:53;;;;;;;7.80;1.50;;;;;;;6.99;100.00;101278.73;5097674;56;1136302;-82
2024/04/21 13:48:59;;;;;;;2.83;2.60;;;;;;;6.94;100.00;101283.83;5025384;55;1136337;-83
2024/04/21 13:54:04;;;;;;;1.60;1.30;;;;;;;7.03;100.00;101278.95;5044685;55;1136496;-83
2024/04/21 13:59:10;;;;;;;2.95;2.70;;;;;;;7.06;100.00;101283.20;5022515;55;1136694;-80
2024/04/21 14:04:15;;;;;;;4.00;2.10;;;;;;;7.12;100.00;101275.48;5025227;55;1136766;-84
2024/04/21 14:09:21;;;;;;;4.67;2.27;;;;;;;7.17;100.00;101282.68;5089614;56;1136565;-80
2024/04/21 14:14:26;;;;;;;2.07;1.70;;;;;;;7.19;100.00;101289.54;5109176;56;1138675;-80
2024/04/21 14:19:32;;;;;;;2.07;1.80;;;;;;;7.11;100.00;101286.46;5109497;56;1136642;-81
2024/04/21 14:24:37;;;;;;;7.57;3.07;;;;;;;7.06;100.00;101289.78;5091476;56;1136588;-84
2024/04/21 14:29:43;;;;;;;3.77;2.90;;;;;;;7.00;100.00;101290.96;5074360;56;1136778;-82
2024/04/21 14:34:48;;;;;;;6.17;3.20;;;;;;;6.90;100.00;101295.42;5025471;57;1136660;-83
2024/04/21 14:39:54;;;;;;;12.73;3.73;;;;;;;6.77;100.00;101300.44;5025925;57;1136744;-82
2024/04/21 14:45:10;;;;;;;9.87;3.47;;;;;;;6.67;100.00;101299.20;5075196;56;1138406;-83
2024/04/21 14:50:14;;;;;;;9.35;4.03;;;;;;;6.63;100.00;101298.95;5109206;55;1136958;-81
2024/04/21 14:55:20;;;;;;;17.37;6.77;;;;;;;6.54;100.00;101299.41;5105527;55;1136501;-82
2024/04/21 15:00:25;;;;;;;8.97;3.47;;;;;;;6.44;100.00;101297.67;5094731;55;1138401;-81
2024/04/21 15:05:31;;;;;;;13.87;4.43;;;;;;;6.27;100.00;101302.88;5025490;57;1136625;-85
2024/04/21 15:10:37;;;;;;;35.03;17.23;;;;;;;6.11;100.00;101294.86;5024479;57;1138399;-82
2024/04/21 15:15:43;;;;;;;17.13;5.83;;;;;;;6.03;100.00;101295.70;5024163;57;1142623;-82
2024/04/21 15:20:49;;;;;;;13.70;6.40;;;;;;;5.96;100.00;101287.70;5044839;57;1138985;-85
2024/04/21 15:25:54;;;;;;;8.83;3.87;;;;;;;5.96;100.00;101287.70;5024697;56;1138408;-83
2024/04/21 15:31:00;;;;;;;8.77;4.17;;;;;;;5.89;100.00;101288.45;5044464;56;1136913;-80
2024/04/21 15:36:07;;;;;;;11.20;4.00;;;;;;;5.89;100.00;101288.45;5064819;57;1136673;-79
2024/04/21 15:41:12;;;;;;;4.83;2.60;;;;;;;5.93;100.00;101285.23;5071700;56;1138834;-81
2024/04/21 15:46:18;;;;;;;8.03;2.77;;;;;;;6.08;100.00;101284.98;5048572;56;1138319;-84
2024/04/21 15:51:24;;;;;;;5.73;2.53;;;;;;;6.18;100.00;101282.31;5063069;57;1136667;-83
2024/04/21 15:56:30;;;;;;;5.97;3.03;;;;;;;6.25;100.00;101288.98;5044555;55;1136525;-82
2024/04/21 16:01:35;;;;;;;4.10;2.20;;;;;;;6.23;100.00;101282.95;5060303;56;1136551;-82
2024/04/21 16:06:41;;;;;;;3.67;2.33;;;;;;;6.26;100.00;101277.06;5053109;55;1136585;-81
2024/04/21 16:11:46;;;;;;;4.70;2.03;;;;;;;6.24;100.00;101282.03;5063610;55;1136754;-80
2024/04/21 16:16:52;;;;;;;4.23;2.20;;;;;;;6.14;100.00;101283.37;5044779;55;1136761;-83
2024/04/21 16:21:57;;;;;;;5.28;2.40;;;;;;;6.04;100.00;101279.48;5064658;55;1136781;-82
2024/04/21 16:27:03;;;;;;;5.87;2.40;;;;;;;5.95;100.00;101279.00;5149472;56;1136307;-84
2024/04/21 16:32:08;;;;;;;5.70;2.35;;;;;;;5.90;100.00;101290.16;5129190;56;1136944;-81
2024/04/21 16:37:14;;;;;;;8.87;4.57;;;;;;;5.85;100.00;101290.79;5128802;56;1136835;-82
2024/04/21 16:42:21;;;;;;;8.98;4.15;;;;;;;5.82;100.00;101289.61;5149202;56;1136672;-81
2024/04/21 16:47:30;;;;;;;6.20;3.80;;;;;;;5.76;100.00;101289.91;5129693;56;1136933;-83
2024/04/21 16:52:36;;;;;;;3.77;2.23;;;;;;;5.71;100.00;101290.57;5101207;56;1136494;-83
2024/04/21 16:57:54;;;;;;;4.50;2.83;;;;;;;5.60;100.00;101295.45;5046687;55;1136617;-82
2024/04/21 17:03:00;;;;;;;22.93;13.43;;;;;;;5.52;100.00;101302.34;5076687;56;1136756;-84
2024/04/21 17:08:16;;;;;;;9.23;5.12;;;;;;;5.49;100.00;101303.81;5043041;56;1140935;-86
2024/04/21 17:13:26;;;;;;;7.27;4.40;;;;;;;5.44;100.00;101310.17;5096383;56;1136804;-84
2024/04/21 17:18:33;;;;;;;17.97;7.53;;;;;;;5.38;100.00;101307.80;5150031;56;1136603;-86
2024/04/21 17:23:41;;;;;;;22.27;12.83;;;;;;;5.35;100.00;101319.77;5052321;56;1138614;-82
2024/04/21 17:28:46;;;;;;;13.93;6.50;;;;;;;5.28;100.00;101315.22;5044916;57;1140713;-84
2024/04/21 17:33:52;;;;;;;10.78;5.55;;;;;;;5.24;100.00;101328.06;5052543;56;1138770;-85
2024/04/21 17:38:57;;;;;;;10.67;4.53;;;;;;;5.20;100.00;101333.04;5070495;56;1138611;-81
2024/04/21 17:44:03;;;;;;;9.53;4.77;;;;;;;5.14;100.00;101334.17;5026305;56;1138751;-85
2024/04/21 17:49:08;;;;;;;6.95;4.00;;;;;;;5.11;100.00;101331.67;5052191;56;1136489;-79
2024/04/21 17:54:20;;;;;;;3.65;3.20;;;;;;;5.05;100.00;101337.16;5025812;56;1136637;-79
2024/04/21 17:59:21;;;;;;;8.10;4.00;;;;;;;4.86;100.00;101343.64;5025312;56;1136681;-82
2024/04/21 18:04:27;;;;;;;10.37;5.33;;;;;;;4.86;100.00;101343.64;5045004;56;1136771;-83
2024/04/21 18:09:32;;;;;;;7.00;4.57;;;;;;;4.79;100.00;101348.72;5049381;56;1139011;-82
2024/04/21 18:14:38;;;;;;;4.27;3.03;;;;;;;4.74;100.00;101355.05;5105323;55;1136600;-81
2024/04/21 18:19:43;;;;;;;11.28;4.05;;;;;;;4.70;100.00;101358.27;5109006;55;1137075;-83
2024/04/21 18:24:49;;;;;;;10.20;4.33;;;;;;;4.64;100.00;101352.41;5065479;56;1138927;-79
2024/04/21 18:29:58;;;;;;;7.83;4.03;;;;;;;4.62;100.00;101362.09;5024790;56;1138694;-81
2024/04/21 18:35:03;;;;;;;4.43;3.00;;;;;;;4.54;100.00;101361.95;5037583;56;1137009;-83
2024/04/21 18:40:09;;;;;;;8.85;3.67;;;;;;;4.48;100.00;101370.05;5065461;56;1136795;-83
2024/04/21 18:45:15;;;;;;;8.80;3.65;;;;;;;4.50;100.00;101375.22;5045069;56;1136756;-84
2024/04/21 18:50:21;;;;;;;6.20;3.30;;;;;;;4.52;100.00;101378.64;5118047;56;1136709;-81
2024/04/21 18:55:26;;;;;;;12.50;6.17;;;;;;;4.55;100.00;101381.15;5101942;56;1136842;-81
2024/04/21 19:00:33;;;;;;;10.50;5.47;;;;;;;4.55;100.00;101381.15;5052138;56;1138594;-82
2024/04/21 19:05:41;;;;;;;33.93;15.20;;;;;;;4.53;100.00;101377.27;5128163;56;1138583;-82
2024/04/21 19:10:46;;;;;;;20.62;9.65;;;;;;;4.53;100.00;101377.27;5103155;55;1140840;-82
2024/04/21 19:16:05;;;;;;;17.33;7.97;;;;;;;4.50;100.00;101372.61;5064906;56;1138997;-84
2024/04/21 19:21:01;;;;;;;16.80;8.13;;;;;;;4.46;100.00;101377.56;5039984;56;1256018;-78
2024/04/21 19:26:07;;;;;;;9.43;4.97;;;;;;;4.45;100.00;101370.61;5044470;55;1139083;-83
2024/04/21 19:31:13;;;;;;;7.90;4.33;;;;;;;4.42;100.00;101370.30;5065849;56;1136599;-80
2024/04/21 19:36:18;;;;;;;10.95;4.95;;;;;;;4.42;100.00;101367.68;5045418;56;1136944;-83
2024/04/21 19:41:24;;;;;;;11.87;5.33;;;;;;;4.45;100.00;101370.16;5044202;56;1138604;-82
2024/04/21 19:46:30;;;;;;;7.87;4.60;;;;;;;4.48;100.00;101366.56;5135315;56;1138792;-86
2024/04/21 19:51:35;;;;;;;20.07;5.70;;;;;;;4.50;100.00;101367.37;5122923;56;1136591;-86
2024/04/21 19:56:41;;;;;;;7.90;3.90;;;;;;;4.50;100.00;101367.37;5128741;56;1138589;-84
2024/04/21 20:01:46;;;;;;;8.60;4.20;;;;;;;4.51;100.00;101373.00;5113584;56;1136751;-84
2024/04/21 20:06:52;;;;;;;9.97;4.27;;;;;;;4.52;100.00;101367.70;5069755;56;1136361;-83
2024/04/21 20:11:57;;;;;;;11.60;5.07;;;;;;;4.49;100.00;101369.13;5072113;56;1136608;-83
2024/04/21 20:22:26;;;;;;;11.85;5.60;;;;;;;4.47;100.00;101370.95;5108765;55;1139255;-82
2024/04/21 20:27:32;;;;;;;17.87;5.03;;;;;;;4.45;100.00;101375.84;5105501;56;1138894;-81
2024/04/21 20:32:37;;;;;;;9.47;4.23;;;;;;;4.41;100.00;101370.35;5096196;56;1138857;-82
2024/04/21 20:37:43;;;;;;;5.20;3.27;;;;;;;4.32;100.00;101375.92;5103593;56;1136930;-79
2024/04/21 20:42:48;;;;;;;12.40;5.03;;;;;;;4.33;100.00;101378.48;5074082;56;1136355;-81
2024/04/21 20:47:54;;;;;;;9.63;5.07;;;;;;;4.36;100.00;101378.38;5044771;56;1138576;-79
2024/04/21 20:53:00;;;;;;;7.17;2.97;;;;;;;4.37;100.00;101382.70;5049718;56;1144085;-83
2024/04/21 20:58:05;;;;;;;6.10;2.90;;;;;;;4.39;100.00;101383.96;5129777;56;1136647;-81
2024/04/21 21:03:11;;;;;;;6.85;3.35;;;;;;;4.34;100.00;101381.50;5064569;56;1136427;-81
2024/04/21 21:08:16;;;;;;;5.28;2.33;;;;;;;4.24;100.00;101384.09;5102937;56;1136869;-82
2024/04/21 21:13:22;;;;;;;4.30;2.50;;;;;;;4.06;100.00;101380.38;5064960;56;1136991;-82
2024/04/21 21:18:28;;;;;;;13.10;4.33;;;;;;;3.96;100.00;101388.64;5045257;56;1137015;-80
2024/04/21 21:23:33;;;;;;;3.90;2.27;;;;;;;3.92;100.00;101389.65;5045579;56;1138817;-82
2024/04/21 21:28:39;;;;;;;3.03;2.20;;;;;;;3.90;100.00;101400.17;5046086;57;1136671;-80
2024/04/21 21:33:46;;;;;;;5.53;2.50;;;;;;;3.83;100.00;101394.29;5065442;57;1136546;-81
2024/04/21 21:38:52;;;;;;;4.60;2.63;;;;;;;3.76;100.00;101394.58;5111939;56;1136524;-81
2024/04/21 21:43:57;;;;;;;3.67;2.00;;;;;;;3.73;100.00;101396.84;5109444;56;1136569;-80
2024/04/21 21:49:03;;;;;;;2.40;1.97;;;;;;;3.69;100.00;101396.55;5125870;56;1136616;-80
2024/04/21 21:54:08;;;;;;;4.93;2.53;;;;;;;3.65;100.00;101403.27;5026270;57;1136547;-81
2024/04/21 21:59:14;;;;;;;3.47;1.90;;;;;;;3.56;100.00;101410.95;5099250;56;1136687;-81
2024/04/21 22:04:20;;;;;;;4.92;2.25;;;;;;;3.45;100.00;101401.33;5119520;56;1136620;-81
2024/04/21 22:09:25;;;;;;;3.70;2.10;;;;;;;3.40;100.00;101406.70;5110436;56;1136816;-80
2024/04/21 22:14:31;;;;;;;4.10;2.00;;;;;;;3.38;100.00;101407.66;5031180;56;1136837;-81
2024/04/21 22:19:38;;;;;;;6.37;1.67;;;;;;;3.35;100.00;101416.94;5083165;56;1136728;-81
2024/04/21 22:24:43;;;;;;;3.57;1.63;;;;;;;3.32;100.00;101414.42;5123856;56;1136467;-80
2024/04/21 22:29:49;;;;;;;3.73;2.00;;;;;;;3.29;100.00;101411.90;5109448;56;1137030;-79
2024/04/21 22:34:55;;;;;;;6.67;2.23;;;;;;;3.22;100.00;101401.23;5109951;56;1136619;-81
2024/04/21 22:40:01;;;;;;;3.00;2.10;;;;;;;3.19;100.00;101403.52;5129357;56;1136197;-81
2024/04/21 22:45:07;;;;;;;4.13;2.00;;;;;;;3.10;100.00;101403.80;5108992;56;1136461;-81
2024/04/21 22:50:12;;;;;;;6.37;2.20;;;;;;;3.05;100.00;101400.05;5025760;56;1137022;-79
2024/04/21 22:55:18;;;;;;;2.35;1.82;;;;;;;3.05;100.00;101388.29;5116267;56;1136789;-82
2024/04/21 23:00:23;;;;;;;2.85;2.22;;;;;;;2.98;100.00;101381.99;5088351;56;1136844;-82
2024/04/21 23:05:29;;;;;;;6.50;2.00;;;;;;;2.87;100.00;101378.88;5025086;57;1136451;-81
2024/04/21 23:10:36;;;;;;;2.83;2.20;;;;;;;2.79;100.00;101373.44;4899310;58;1136358;-80